createdAt,value
2023-01-17T00:01:25.019Z,8.10
2023-01-17T00:06:50.442Z,9.60
2023-01-17T00:11:58.041Z,10.40
2023-01-17T00:17:06.641Z,8.40
2023-01-17T00:22:44.835Z,9.00
2023-01-17T00:27:51.551Z,9.10
2023-01-17T00:32:59.021Z,12.70
2023-01-17T00:38:07.612Z,11.80
2023-01-17T00:43:35.766Z,9.10
2023-01-17T00:49:02.434Z,9.20
2023-01-17T00:54:30.424Z,7.60
2023-01-17T00:59:58.095Z,9.40
2023-01-17T01:05:24.725Z,12.20
2023-01-17T01:10:50.694Z,10.20
2023-01-17T01:16:19.838Z,10.10
2023-01-17T01:21:45.746Z,10.10
2023-01-17T01:27:13.118Z,11.90
2023-01-17T01:32:40.629Z,10.80
2023-01-17T01:37:49.444Z,9.80
2023-01-17T01:43:00.103Z,9.50
2023-01-17T01:48:18.211Z,9.50
2023-01-17T01:53:26.727Z,7.90
2023-01-17T01:58:38.768Z,9.20
2023-01-17T02:03:47.641Z,7.60
2023-01-17T02:08:56.206Z,7.80
2023-01-17T02:14:04.950Z,6.30
2023-01-17T02:19:39.931Z,5.50
2023-01-17T02:25:14.262Z,5.90
2023-01-17T02:30:37.520Z,5.20
2023-01-17T02:35:56.711Z,4.50
2023-01-17T02:41:10.351Z,4.90
2023-01-17T02:46:17.692Z,3.10
2023-01-17T02:51:49.549Z,2.60
2023-01-17T02:57:15.168Z,2.40
2023-01-17T03:02:29.764Z,2.40
2023-01-17T03:07:40.427Z,1.80
2023-01-17T03:12:49.061Z,1.90
2023-01-17T03:18:00.900Z,2.10
2023-01-17T03:23:09.310Z,2.00
2023-01-17T03:28:17.471Z,2.00
2023-01-17T03:33:25.795Z,2.10
2023-01-17T03:38:34.072Z,1.70
2023-01-17T03:43:42.811Z,1.40
2023-01-17T03:48:51.375Z,1.70
2023-01-17T03:53:59.594Z,2.10
2023-01-17T03:59:08.103Z,1.80
2023-01-17T04:04:16.831Z,2.80
2023-01-17T04:09:25.108Z,2.30
2023-01-17T04:14:33.481Z,2.90
2023-01-17T04:19:45.160Z,2.70
2023-01-17T04:24:53.903Z,2.90
2023-01-17T04:30:02.596Z,3.10
2023-01-17T04:35:11.678Z,3.20
2023-01-17T04:40:20.829Z,3.60
2023-01-17T04:45:29.500Z,4.00
2023-01-17T04:50:37.766Z,3.70
2023-01-17T04:55:49.076Z,4.10
2023-01-17T05:00:57.656Z,4.60
2023-01-17T05:06:06.554Z,5.10
2023-01-17T05:11:14.809Z,5.50
2023-01-17T05:16:24.140Z,6.10
2023-01-17T05:21:39.296Z,7.90
2023-01-17T05:26:49.022Z,7.00
2023-01-17T05:31:57.970Z,5.80
2023-01-17T05:37:06.217Z,6.00
2023-01-17T05:42:14.520Z,6.10
2023-01-17T05:47:22.917Z,6.10
2023-01-17T05:52:31.238Z,6.70
2023-01-17T05:57:40.533Z,7.80
2023-01-17T06:02:49.156Z,8.80
2023-01-17T06:07:58.216Z,9.10
2023-01-17T06:13:08.458Z,9.60
2023-01-17T06:18:18.809Z,9.80
2023-01-17T06:23:28.698Z,9.20
2023-01-17T06:28:37.058Z,10.40
2023-01-17T06:33:45.349Z,9.70
2023-01-17T06:38:55.234Z,11.30
2023-01-17T06:44:04.731Z,10.90
2023-01-17T06:49:13.188Z,10.70
2023-01-17T06:54:21.618Z,11.80
2023-01-17T06:59:30.082Z,9.50
2023-01-17T07:04:38.456Z,9.80
2023-01-17T07:09:47.386Z,10.30
2023-01-17T07:14:56.861Z,9.90
2023-01-17T07:20:05.603Z,8.50
2023-01-17T07:25:14.381Z,9.80
2023-01-17T07:30:23.067Z,10.10
2023-01-17T07:35:31.955Z,10.60
2023-01-17T07:40:42.421Z,10.50
2023-01-17T07:45:52.424Z,10.80
2023-01-17T07:51:01.817Z,8.80
2023-01-17T07:56:11.532Z,12.00
2023-01-17T08:01:19.767Z,10.40
2023-01-17T08:06:29.787Z,11.20
2023-01-17T08:11:38.167Z,11.00
2023-01-17T08:16:46.451Z,10.90
2023-01-17T08:21:54.701Z,11.40
2023-01-17T08:27:02.987Z,12.40
2023-01-17T08:32:10.796Z,11.80
2023-01-17T08:37:18.409Z,10.60
2023-01-17T08:42:26.954Z,12.00
2023-01-17T08:47:35.735Z,10.50
2023-01-17T08:52:44.579Z,10.40
2023-01-17T08:57:52.424Z,11.30
2023-01-17T09:03:01.989Z,9.90
2023-01-17T09:08:11.737Z,10.00
2023-01-17T09:13:20.327Z,8.80
2023-01-17T09:18:29.919Z,9.70
2023-01-17T09:23:38.265Z,10.10
2023-01-17T09:28:46.895Z,9.60
2023-01-17T09:33:56.407Z,9.60
2023-01-17T09:39:05.693Z,10.00
2023-01-17T09:44:25.790Z,9.30
2023-01-17T09:49:42.677Z,8.70
2023-01-17T09:54:52.908Z,8.30
2023-01-17T10:00:13.405Z,10.20
2023-01-17T10:05:35.262Z,9.50
2023-01-17T10:10:49.129Z,8.50
2023-01-17T10:16:16.058Z,9.40
2023-01-17T10:21:34.911Z,10.00
2023-01-17T10:26:42.477Z,9.90
2023-01-17T10:31:55.886Z,9.80
2023-01-17T10:37:13.592Z,10.10
2023-01-17T10:42:25.578Z,9.90
2023-01-17T10:47:37.189Z,9.20
2023-01-17T10:52:56.106Z,8.60
2023-01-17T10:58:04.865Z,8.70
2023-01-17T11:03:14.263Z,8.60
2023-01-17T11:08:22.841Z,9.60
2023-01-17T11:13:35.506Z,9.30
2023-01-17T11:20:02.054Z,8.50
2023-01-17T11:25:22.442Z,9.50
2023-01-17T11:30:36.002Z,8.80
2023-01-17T11:35:48.295Z,8.80
2023-01-17T11:41:18.295Z,8.30
2023-01-17T11:46:28.842Z,9.50
2023-01-17T11:51:42.360Z,8.80
2023-01-17T11:56:52.335Z,8.60
2023-01-17T12:02:32.165Z,8.70
2023-01-17T12:07:49.963Z,8.80
2023-01-17T12:13:25.400Z,8.70
2023-01-17T12:18:46.588Z,8.20
2023-01-17T12:24:29.299Z,9.40
2023-01-17T12:29:51.730Z,7.30
2023-01-17T12:35:08.560Z,8.70
2023-01-17T12:40:30.609Z,8.50
2023-01-17T12:45:45.011Z,8.50
2023-01-17T12:50:57.355Z,9.60
2023-01-17T12:56:10.665Z,10.00
2023-01-17T13:01:25.864Z,9.10
2023-01-17T13:06:44.407Z,9.10
2023-01-17T13:11:57.244Z,9.10
2023-01-17T13:17:19.583Z,9.30
2023-01-17T13:27:58.091Z,7.70
2023-01-17T13:33:25.599Z,8.60
2023-01-17T13:38:55.877Z,9.20
2023-01-17T13:44:25.206Z,8.60
2023-01-17T13:49:49.836Z,7.90
2023-01-17T13:54:59.381Z,8.50
2023-01-17T14:00:37.156Z,9.30
2023-01-17T14:05:58.535Z,8.10
2023-01-17T14:11:13.810Z,9.40
2023-01-17T14:16:31.890Z,8.40
2023-01-17T14:21:40.356Z,8.60
2023-01-17T14:26:58.955Z,8.10
2023-01-17T14:32:11.836Z,8.90
2023-01-17T14:37:48.073Z,7.60
2023-01-17T14:43:02.988Z,8.60
2023-01-17T14:48:23.374Z,10.20
2023-01-17T14:53:32.948Z,8.70
2023-01-17T14:58:41.680Z,8.60
2023-01-17T15:03:52.286Z,7.70
2023-01-17T15:09:03.747Z,8.30
2023-01-17T15:14:24.194Z,7.20
2023-01-17T15:19:45.885Z,8.70
2023-01-17T15:24:55.011Z,7.60
2023-01-17T15:30:04.683Z,8.40
2023-01-17T15:35:21.157Z,7.70
2023-01-17T15:40:31.628Z,7.50
2023-01-17T15:45:40.285Z,8.10
2023-01-17T15:50:49.002Z,8.00
2023-01-17T15:55:58.205Z,7.90
2023-01-17T16:01:17.904Z,7.90
2023-01-17T16:06:48.141Z,8.00
2023-01-17T16:11:57.042Z,8.20
2023-01-17T16:17:06.427Z,8.50
2023-01-17T16:22:15.423Z,8.20
2023-01-17T16:27:24.142Z,8.20
2023-01-17T16:32:32.929Z,8.70
2023-01-17T16:37:42.240Z,9.20
2023-01-17T16:42:50.382Z,8.70
2023-01-17T16:47:59.035Z,7.40
2023-01-17T16:53:07.222Z,7.80
2023-01-17T16:58:17.223Z,8.30
2023-01-17T17:03:25.785Z,8.80
2023-01-17T17:08:37.077Z,9.60
2023-01-17T17:13:46.697Z,7.90
2023-01-17T17:19:01.086Z,9.10
2023-01-17T17:24:13.551Z,8.50
2023-01-17T17:29:22.249Z,9.60
2023-01-17T17:34:35.894Z,9.40
2023-01-17T17:39:45.004Z,10.20
2023-01-17T17:44:53.427Z,8.90
2023-01-17T17:50:02.225Z,9.20
2023-01-17T17:55:11.478Z,10.30
2023-01-17T18:00:21.371Z,9.50
2023-01-17T18:05:29.897Z,8.50
2023-01-17T18:10:38.446Z,9.80
2023-01-17T18:15:47.160Z,10.80
2023-01-17T18:20:55.655Z,11.00
2023-01-17T18:26:04.064Z,10.10
2023-01-17T18:31:12.737Z,10.40
2023-01-17T18:36:21.530Z,10.60
2023-01-17T18:41:31.901Z,10.80
2023-01-17T18:46:42.411Z,10.40
2023-01-17T18:51:51.590Z,9.70
2023-01-17T18:57:00.198Z,10.50
2023-01-17T19:02:08.450Z,10.50
2023-01-17T19:07:16.802Z,10.80
2023-01-17T19:12:24.982Z,11.60
2023-01-17T19:17:33.288Z,11.30
2023-01-17T19:22:42.058Z,11.50
2023-01-17T19:27:50.415Z,12.00
2023-01-17T19:32:58.814Z,12.50
2023-01-17T19:38:07.583Z,10.70
2023-01-17T19:43:16.513Z,11.60
2023-01-17T19:48:24.983Z,11.80
2023-01-17T19:53:33.493Z,12.80
2023-01-17T19:58:42.613Z,13.00
2023-01-17T20:03:51.540Z,12.40
2023-01-17T20:09:00.369Z,11.90
2023-01-17T20:14:08.966Z,12.60
2023-01-17T20:19:17.220Z,12.60
2023-01-17T20:24:25.954Z,12.90
2023-01-17T20:29:34.481Z,12.60
2023-01-17T20:34:45.339Z,12.60
2023-01-17T20:39:54.495Z,12.30
2023-01-17T20:45:03.230Z,13.30
2023-01-17T20:50:12.770Z,12.60
2023-01-17T20:55:22.041Z,12.50
2023-01-17T21:00:30.580Z,13.20
2023-01-17T21:05:39.318Z,13.30
2023-01-17T21:10:51.171Z,12.00
2023-01-17T21:15:59.530Z,13.40
2023-01-17T21:21:09.302Z,12.60
2023-01-17T21:26:19.822Z,14.00
2023-01-17T21:31:34.041Z,13.90
2023-01-17T21:36:43.827Z,13.80
2023-01-17T21:41:52.548Z,15.00
2023-01-17T21:47:01.283Z,14.60
2023-01-17T21:52:23.541Z,14.60
2023-01-17T22:02:58.819Z,11.40
2023-01-17T22:08:14.842Z,15.50
2023-01-17T22:13:23.400Z,14.60
2023-01-17T22:18:32.321Z,16.10
2023-01-17T22:23:41.147Z,15.20
2023-01-17T22:28:50.008Z,16.50
2023-01-17T22:33:59.867Z,16.70
2023-01-17T22:39:08.768Z,17.30
2023-01-17T22:44:17.164Z,16.80
2023-01-17T22:49:25.566Z,16.30
2023-01-17T22:54:33.970Z,16.60
2023-01-17T22:59:42.516Z,14.70
2023-01-17T23:04:50.706Z,15.60
2023-01-17T23:09:59.061Z,15.40
2023-01-17T23:15:27.584Z,15.30
2023-01-17T23:20:35.712Z,15.50
2023-01-17T23:25:43.966Z,17.70
2023-01-17T23:30:52.807Z,19.20
2023-01-17T23:36:00.153Z,19.90
2023-01-17T23:41:43.817Z,21.70
2023-01-17T23:46:52.286Z,19.40
2023-01-17T23:52:00.835Z,20.60
2023-01-17T23:57:09.144Z,20.30
